createdAt,value
2023-06-04T00:24:02.325Z,41
2023-06-04T00:53:13.647Z,42
2023-06-04T01:22:31.985Z,43
2023-06-04T01:51:42.557Z,45
2023-06-04T02:21:00.027Z,46
2023-06-04T02:50:22.590Z,47
2023-06-04T03:19:39.369Z,47
2023-06-04T03:48:45.232Z,49
2023-06-04T04:17:55.454Z,48
2023-06-04T04:47:07.204Z,50
2023-06-04T05:16:22.651Z,48
2023-06-04T05:45:38.025Z,48
2023-06-04T06:14:55.042Z,49
2023-06-04T06:44:08.250Z,49
2023-06-04T07:13:23.029Z,48
2023-06-04T07:42:45.183Z,47
2023-06-04T08:12:00.908Z,47
2023-06-04T08:41:19.024Z,46
2023-06-04T09:10:34.464Z,46
2023-06-04T09:39:54.854Z,45
2023-06-04T10:09:19.694Z,45
2023-06-04T10:38:48.882Z,43
2023-06-04T11:08:21.534Z,42
2023-06-04T11:37:50.863Z,38
2023-06-04T12:07:17.862Z,38
2023-06-04T12:36:57.528Z,32
2023-06-04T13:06:30.358Z,29
2023-06-04T13:36:02.522Z,26
2023-06-04T14:05:30.248Z,26
2023-06-04T14:35:00.579Z,24
2023-06-04T15:04:29.932Z,24
2023-06-04T15:33:15.252Z,24
2023-06-04T16:02:18.295Z,26
2023-06-04T16:31:38.891Z,26
2023-06-04T17:00:50.616Z,26
2023-06-04T17:30:01.240Z,28
2023-06-04T17:59:14.331Z,29
2023-06-04T18:28:31.776Z,30
2023-06-04T18:57:46.332Z,31
2023-06-04T19:26:53.651Z,31
2023-06-04T19:56:10.193Z,33
2023-06-04T20:25:07.272Z,39
2023-06-04T20:54:20.276Z,46
2023-06-04T21:23:32.566Z,41
2023-06-04T21:52:46.325Z,48
2023-06-04T22:21:58.468Z,43
2023-06-04T22:51:06.067Z,44
2023-06-04T23:20:08.291Z,43
2023-06-04T23:49:26.093Z,44
